createdAt,value
2018-06-13T00:02:01.159Z,18.10
2018-06-13T00:04:30.084Z,18.10
2018-06-13T00:06:59.832Z,18.10
2018-06-13T00:09:28.813Z,18.00
2018-06-13T00:11:57.684Z,18.00
2018-06-13T00:14:26.524Z,18.00
2018-06-13T00:16:55.380Z,18.00
2018-06-13T00:19:24.275Z,18.00
2018-06-13T00:21:53.166Z,18.00
2018-06-13T00:24:22.056Z,18.00
2018-06-13T00:26:51.071Z,17.90
2018-06-13T00:29:20.044Z,17.90
2018-06-13T00:31:49.119Z,17.90
2018-06-13T00:34:18.004Z,17.90
2018-06-13T00:36:46.834Z,17.80
2018-06-13T00:39:15.778Z,17.80
2018-06-13T00:41:44.639Z,17.90
2018-06-13T00:44:13.478Z,17.90
2018-06-13T00:52:50.107Z,17.80
2018-06-13T00:55:19.036Z,17.70
2018-06-13T00:57:47.987Z,17.70
2018-06-13T01:00:16.821Z,17.70
2018-06-13T01:05:14.422Z,17.80
2018-06-13T01:07:43.335Z,17.80
2018-06-13T01:10:12.226Z,17.80
2018-06-13T01:12:41.110Z,17.80
2018-06-13T01:15:09.962Z,17.80
2018-06-13T01:17:38.802Z,17.80
2018-06-13T01:20:07.676Z,17.80
2018-06-13T01:25:05.312Z,17.70
2018-06-13T01:30:03.088Z,17.60
2018-06-13T01:35:00.688Z,17.60
2018-06-13T01:37:29.587Z,17.60
2018-06-13T01:39:58.500Z,17.60
2018-06-13T01:42:27.358Z,17.50
2018-06-13T01:47:24.990Z,17.70
2018-06-13T01:49:53.867Z,17.70
2018-06-13T01:52:22.795Z,17.60
2018-06-13T01:54:51.651Z,17.50
2018-06-13T01:57:20.730Z,17.50
2018-06-13T01:59:49.628Z,17.50
2018-06-13T02:02:18.474Z,17.50
2018-06-13T02:07:16.088Z,17.40
2018-06-13T02:09:44.996Z,17.40
2018-06-13T02:12:13.870Z,17.40
2018-06-13T02:14:42.723Z,17.40
2018-06-13T02:17:11.556Z,17.50
2018-06-13T02:19:40.583Z,17.40
2018-06-13T02:22:09.509Z,17.40
2018-06-13T02:24:38.431Z,17.40
2018-06-13T02:27:07.315Z,17.40
2018-06-13T02:29:38.590Z,17.40
2018-06-13T02:32:07.500Z,17.40
2018-06-13T02:34:36.356Z,17.40
2018-06-13T02:37:05.335Z,17.30
2018-06-13T02:39:34.241Z,17.30
2018-06-13T02:42:03.217Z,17.30
2018-06-13T02:44:32.123Z,17.30
2018-06-13T02:47:00.984Z,17.30
2018-06-13T02:49:29.911Z,17.30
2018-06-13T02:51:58.828Z,17.30
2018-06-13T02:54:27.652Z,17.30
2018-06-13T02:56:56.539Z,17.30
2018-06-13T03:01:54.243Z,17.10
2018-06-13T03:04:23.108Z,17.10
2018-06-13T03:06:51.971Z,17.10
2018-06-13T03:09:20.951Z,17.10
2018-06-13T03:11:49.806Z,17.20
2018-06-13T03:14:18.726Z,17.20
2018-06-13T03:16:47.588Z,17.10
2018-06-13T03:19:17.761Z,17.10
2018-06-13T03:21:46.595Z,17.10
2018-06-13T03:24:15.458Z,17.10
2018-06-13T03:29:13.180Z,17.10
2018-06-13T03:31:42.069Z,17.10
2018-06-13T03:34:10.908Z,17.10
2018-06-13T03:39:09.033Z,17.20
2018-06-13T03:41:37.894Z,17.10
2018-06-13T03:44:06.967Z,17.10
2018-06-13T03:46:35.810Z,17.10
2018-06-13T03:49:04.732Z,17.10
2018-06-13T03:51:33.624Z,17.10
2018-06-13T03:54:02.487Z,17.10
2018-06-13T03:56:31.889Z,17.10
2018-06-13T03:59:01.032Z,17.10
2018-06-13T04:01:30.057Z,17.20
2018-06-13T04:03:58.967Z,17.10
2018-06-13T04:06:27.821Z,17.10
2018-06-13T04:13:55.486Z,17.20
2018-06-13T04:16:24.414Z,17.30
2018-06-13T04:21:22.800Z,17.40
2018-06-13T04:26:20.488Z,17.40
2018-06-13T04:28:49.497Z,17.40
2018-06-13T04:31:18.364Z,17.40
2018-06-13T04:36:16.031Z,17.40
2018-06-13T04:38:45.443Z,17.40
2018-06-13T04:41:14.908Z,17.30
2018-06-13T04:43:44.052Z,17.30
2018-06-13T04:46:13.201Z,17.30
2018-06-13T04:48:42.147Z,17.40
2018-06-13T04:53:40.224Z,17.50
2018-06-13T04:58:38.729Z,17.60
2018-06-13T05:01:08.462Z,17.70
2018-06-13T05:03:37.550Z,17.60
2018-06-13T05:06:06.669Z,17.70
2018-06-13T05:08:35.636Z,17.70
2018-06-13T05:13:35.243Z,17.70
2018-06-13T05:21:01.707Z,17.70
2018-06-13T05:23:30.504Z,17.70
2018-06-13T05:28:29.134Z,17.70
2018-06-13T05:30:58.013Z,17.70
2018-06-13T05:33:26.998Z,17.80
2018-06-13T05:35:55.863Z,17.80
2018-06-13T05:38:24.815Z,17.80
2018-06-13T05:40:53.678Z,17.80
2018-06-13T05:43:22.520Z,17.90
2018-06-13T05:45:51.364Z,18.00
2018-06-13T05:48:20.234Z,18.00
2018-06-13T05:53:17.784Z,18.20
2018-06-13T05:55:46.652Z,18.20
2018-06-13T05:58:15.591Z,18.20
2018-06-13T06:03:13.227Z,18.30
2018-06-13T06:05:42.076Z,18.30
2018-06-13T06:08:10.992Z,18.40
2018-06-13T06:10:39.848Z,18.40
2018-06-13T06:13:08.709Z,18.50
2018-06-13T06:15:37.555Z,18.50
2018-06-13T06:18:06.457Z,18.40
2018-06-13T06:20:35.379Z,18.40
2018-06-13T06:23:04.233Z,18.40
2018-06-13T06:25:33.139Z,18.50
2018-06-13T06:28:02.024Z,18.60
2018-06-13T06:30:31.215Z,18.70
2018-06-13T06:33:00.096Z,18.80
2018-06-13T06:35:29.793Z,18.80
2018-06-13T06:37:58.662Z,18.90
2018-06-13T06:42:56.227Z,18.90
2018-06-13T06:47:53.818Z,19.00
2018-06-13T06:50:22.963Z,19.10
2018-06-13T06:52:51.994Z,19.10
2018-06-13T06:57:49.624Z,19.20
2018-06-13T07:00:25.178Z,19.20
2018-06-13T07:02:54.020Z,19.20
2018-06-13T07:07:51.734Z,19.30
2018-06-13T07:10:20.590Z,19.30
2018-06-13T07:15:18.195Z,19.40
2018-06-13T07:17:47.055Z,19.50
2018-06-13T07:22:44.618Z,19.60
2018-06-13T07:27:42.203Z,19.60
2018-06-13T07:32:39.783Z,19.60
2018-06-13T07:35:08.640Z,19.60
2018-06-13T07:37:37.492Z,19.70
2018-06-13T07:40:06.474Z,19.70
2018-06-13T07:42:35.301Z,19.70
2018-06-13T07:45:04.233Z,19.80
2018-06-13T07:50:01.851Z,20.00
2018-06-13T07:52:30.671Z,20.00
2018-06-13T07:54:59.528Z,20.00
2018-06-13T07:57:28.336Z,20.10
2018-06-13T07:59:57.251Z,20.20
2018-06-13T08:02:26.059Z,20.30
2018-06-13T08:04:54.895Z,20.40
2018-06-13T08:07:23.748Z,20.40
2018-06-13T08:09:52.663Z,20.50
2018-06-13T08:12:21.515Z,20.50
2018-06-13T08:14:50.316Z,20.50
2018-06-13T08:17:19.229Z,20.60
2018-06-13T08:19:48.077Z,20.70
2018-06-13T08:22:16.897Z,20.90
2018-06-13T08:24:55.336Z,20.90
2018-06-13T08:27:24.199Z,21.00
2018-06-13T08:34:50.552Z,21.10
2018-06-13T08:37:19.383Z,21.20
2018-06-13T08:39:48.252Z,21.20
2018-06-13T08:42:17.088Z,21.30
2018-06-13T08:44:45.916Z,21.40
2018-06-13T08:47:14.792Z,21.30
2018-06-13T08:52:12.439Z,21.50
2018-06-13T08:54:41.267Z,21.60
2018-06-13T08:57:10.091Z,21.60
2018-06-13T08:59:38.944Z,21.70
2018-06-13T09:04:36.518Z,21.90
2018-06-13T09:07:05.344Z,22.00
2018-06-13T09:09:34.278Z,22.10
2018-06-13T09:12:03.155Z,22.20
2018-06-13T09:14:32.005Z,22.20
2018-06-13T09:17:00.852Z,22.10
2018-06-13T09:19:29.824Z,22.00
2018-06-13T09:21:58.647Z,22.10
2018-06-13T09:24:27.462Z,22.10
2018-06-13T09:26:56.295Z,22.10
2018-06-13T09:29:25.115Z,22.20
2018-06-13T09:34:22.700Z,22.40
2018-06-13T09:39:20.335Z,22.60
2018-06-13T09:41:54.639Z,22.60
2018-06-13T09:44:23.503Z,22.50
2018-06-13T09:46:52.328Z,22.60
2018-06-13T09:49:21.178Z,22.60
2018-06-13T09:51:50.012Z,22.60
2018-06-13T09:54:18.856Z,22.70
2018-06-13T09:56:47.739Z,22.70
2018-06-13T10:01:54.419Z,22.80
2018-06-13T10:06:51.975Z,22.80
2018-06-13T10:09:20.829Z,22.80
2018-06-13T10:11:49.672Z,22.90
2018-06-13T10:14:18.488Z,23.10
2018-06-13T10:16:47.346Z,23.20
2018-06-13T10:19:16.307Z,23.20
2018-06-13T10:21:45.175Z,23.30
2018-06-13T10:24:14.015Z,23.40
2018-06-13T10:26:42.888Z,23.50
2018-06-13T10:29:11.706Z,23.40
2018-06-13T10:31:40.687Z,23.30
2018-06-13T10:34:09.512Z,23.30
2018-06-13T10:36:38.361Z,23.20
2018-06-13T10:39:08.203Z,23.20
2018-06-13T10:41:37.016Z,23.30
2018-06-13T10:44:05.892Z,23.50
2018-06-13T10:46:34.736Z,23.80
2018-06-13T10:49:03.676Z,23.80
2018-06-13T10:51:32.532Z,23.80
2018-06-13T10:54:01.360Z,23.90
2018-06-13T10:56:30.219Z,24.00
2018-06-13T10:58:59.118Z,24.00
2018-06-13T11:01:27.954Z,24.00
2018-06-13T11:03:56.810Z,24.00
2018-06-13T11:06:25.635Z,23.90
2018-06-13T11:08:54.515Z,23.80
2018-06-13T11:11:23.326Z,23.70
2018-06-13T11:13:52.155Z,23.50
2018-06-13T11:16:21.008Z,23.40
2018-06-13T11:18:49.936Z,23.40
2018-06-13T11:21:18.837Z,23.50
2018-06-13T11:23:47.658Z,23.80
2018-06-13T11:26:16.504Z,24.00
2018-06-13T11:28:45.404Z,24.00
2018-06-13T11:31:14.252Z,23.80
2018-06-13T11:33:43.088Z,23.80
2018-06-13T11:36:11.955Z,23.70
2018-06-13T11:38:40.872Z,23.70
2018-06-13T11:41:09.711Z,23.80
2018-06-13T11:43:38.551Z,23.80
2018-06-13T11:46:07.443Z,23.80
2018-06-13T11:48:36.320Z,23.90
2018-06-13T11:51:05.247Z,24.10
2018-06-13T11:53:34.117Z,24.10
2018-06-13T11:56:03.008Z,24.10
2018-06-13T11:58:31.924Z,24.00
2018-06-13T12:01:00.755Z,24.10
2018-06-13T12:03:29.604Z,24.00
2018-06-13T12:05:59.083Z,24.00
2018-06-13T12:08:28.527Z,24.10
2018-06-13T12:10:57.434Z,24.30
2018-06-13T12:15:55.045Z,24.60
2018-06-13T12:18:24.009Z,24.60
2018-06-13T12:21:56.486Z,24.60
2018-06-13T12:24:25.338Z,24.60
2018-06-13T12:26:55.162Z,24.60
2018-06-13T12:29:24.239Z,24.70
2018-06-13T12:31:53.191Z,24.60
2018-06-13T12:34:22.023Z,24.70
2018-06-13T12:36:50.875Z,25.00
2018-06-13T12:39:19.745Z,25.20
2018-06-13T12:41:48.584Z,25.10
2018-06-13T12:44:17.462Z,25.00
2018-06-13T12:46:46.292Z,24.80
2018-06-13T12:49:15.228Z,24.60
2018-06-13T12:51:44.065Z,24.60
2018-06-13T12:54:12.871Z,24.60
2018-06-13T12:56:41.688Z,24.60
2018-06-13T13:01:39.816Z,24.60
2018-06-13T13:04:08.647Z,24.60
2018-06-13T13:06:37.512Z,25.00
2018-06-13T13:09:10.180Z,25.50
2018-06-13T13:11:39.007Z,26.10
2018-06-13T13:14:07.820Z,26.60
2018-06-13T13:19:05.784Z,26.30
2018-06-13T13:21:34.657Z,26.10
2018-06-13T13:24:03.500Z,26.30
2018-06-13T13:26:32.351Z,26.30
2018-06-13T13:29:01.511Z,26.20
2018-06-13T13:31:30.380Z,26.10
2018-06-13T13:33:59.257Z,25.80
2018-06-13T13:36:28.107Z,25.60
2018-06-13T13:38:57.045Z,25.40
2018-06-13T13:41:25.859Z,25.20
2018-06-13T13:43:54.771Z,25.20
2018-06-13T13:46:23.599Z,24.80
2018-06-13T13:48:52.767Z,24.70
2018-06-13T13:51:21.614Z,24.50
2018-06-13T13:53:50.512Z,24.40
2018-06-13T13:56:19.335Z,24.20
2018-06-13T13:58:48.279Z,24.20
2018-06-13T14:01:17.136Z,24.00
2018-06-13T14:03:45.983Z,24.00
2018-06-13T14:06:14.883Z,24.00
2018-06-13T14:08:44.325Z,23.90
2018-06-13T14:11:13.412Z,23.80
2018-06-13T14:13:42.352Z,23.90
2018-06-13T14:16:11.459Z,24.00
2018-06-13T14:18:40.360Z,23.80
2018-06-13T14:21:09.176Z,23.60
2018-06-13T14:23:38.103Z,23.20
2018-06-13T14:26:07.132Z,23.00
2018-06-13T14:28:36.010Z,22.80
2018-06-13T14:31:04.880Z,22.60
2018-06-13T14:33:33.763Z,22.30
2018-06-13T14:36:02.608Z,21.90
2018-06-13T14:38:31.573Z,21.60
2018-06-13T14:41:00.421Z,21.30
2018-06-13T14:43:29.290Z,21.00
2018-06-13T14:45:58.660Z,20.80
2018-06-13T14:48:27.630Z,20.80
2018-06-13T14:50:56.539Z,20.60
2018-06-13T14:53:25.400Z,20.60
2018-06-13T14:55:59.884Z,20.50
2018-06-13T14:58:29.161Z,20.20
2018-06-13T15:00:58.191Z,19.90
2018-06-13T15:03:27.073Z,19.80
2018-06-13T15:05:55.944Z,19.70
2018-06-13T15:08:25.295Z,19.70
2018-06-13T15:13:22.998Z,19.60
2018-06-13T15:15:51.890Z,19.60
2018-06-13T15:18:20.759Z,19.60
2018-06-13T15:23:18.896Z,19.60
2018-06-13T15:25:47.956Z,19.60
2018-06-13T15:28:17.931Z,19.60
2018-06-13T15:30:47.248Z,19.50
2018-06-13T15:33:17.668Z,19.40
2018-06-13T15:35:46.744Z,19.40
2018-06-13T15:38:15.604Z,19.40
2018-06-13T15:40:44.490Z,19.40
2018-06-13T15:43:13.984Z,19.40
2018-06-13T15:45:43.567Z,19.30
2018-06-13T15:48:12.590Z,19.30
2018-06-13T15:50:41.467Z,19.30
2018-06-13T15:53:10.350Z,19.40
2018-06-13T15:55:39.212Z,19.30
2018-06-13T15:58:08.226Z,19.30
2018-06-13T16:00:37.119Z,19.30
2018-06-13T16:05:35.255Z,19.30
2018-06-13T16:08:04.222Z,19.30
2018-06-13T16:10:33.102Z,19.30
2018-06-13T16:13:04.891Z,19.20
2018-06-13T16:15:33.833Z,19.10
2018-06-13T16:18:02.735Z,19.10
2018-06-13T16:20:31.635Z,19.00
2018-06-13T16:23:00.491Z,19.00
2018-06-13T16:27:58.216Z,19.10
2018-06-13T16:30:27.238Z,19.00
2018-06-13T16:32:56.133Z,19.10
2018-06-13T16:35:24.974Z,19.00
2018-06-13T16:37:53.989Z,19.00
2018-06-13T16:40:22.907Z,18.90
2018-06-13T16:42:51.776Z,18.90
2018-06-13T16:45:20.676Z,19.00
2018-06-13T16:47:49.548Z,19.00
2018-06-13T16:50:35.572Z,19.00
2018-06-13T16:55:46.190Z,19.00
2018-06-13T17:00:43.953Z,19.00
2018-06-13T17:03:12.849Z,19.00
2018-06-13T17:05:41.741Z,19.10
2018-06-13T17:13:08.902Z,19.00
2018-06-13T17:15:37.897Z,19.00
2018-06-13T17:18:06.746Z,19.00
2018-06-13T17:20:37.429Z,19.10
2018-06-13T17:23:06.642Z,19.10
2018-06-13T17:25:36.124Z,19.10
2018-06-13T17:28:05.356Z,19.10
2018-06-13T17:30:34.287Z,19.10
2018-06-13T17:33:03.184Z,19.10
2018-06-13T17:35:32.492Z,19.10
2018-06-13T17:38:02.576Z,19.10
2018-06-13T17:40:31.595Z,19.10
2018-06-13T17:43:00.816Z,19.10
2018-06-13T17:45:30.010Z,19.10
2018-06-13T17:47:59.765Z,19.10
2018-06-13T17:50:28.698Z,19.10
2018-06-13T17:52:58.543Z,19.10
2018-06-13T17:55:27.629Z,19.10
2018-06-13T17:57:56.800Z,19.10
2018-06-13T18:00:25.720Z,19.10
2018-06-13T18:02:54.578Z,19.10
2018-06-13T18:05:23.449Z,19.10
2018-06-13T18:07:52.550Z,19.10
2018-06-13T18:10:23.328Z,19.10
2018-06-13T18:15:21.449Z,19.00
2018-06-13T18:17:50.388Z,19.00
2018-06-13T18:25:19.631Z,19.00
2018-06-13T18:27:49.372Z,19.00
2018-06-13T18:32:48.815Z,19.00
2018-06-13T18:35:18.059Z,19.00
2018-06-13T18:37:46.979Z,18.90
2018-06-13T18:40:17.340Z,18.90
2018-06-13T18:42:47.877Z,18.90
2018-06-13T18:45:19.669Z,18.90
2018-06-13T18:47:49.048Z,18.90
2018-06-13T18:50:22.053Z,18.90
2018-06-13T18:52:51.997Z,18.80
2018-06-13T18:55:21.068Z,18.80
2018-06-13T18:57:50.089Z,18.80
2018-06-13T19:00:20.472Z,18.80
2018-06-13T19:02:49.565Z,18.80
2018-06-13T19:05:18.793Z,18.80
2018-06-13T19:07:48.056Z,18.80
2018-06-13T19:10:18.985Z,18.80
2018-06-13T19:12:49.040Z,18.80
2018-06-13T19:15:18.492Z,18.80
2018-06-13T19:17:47.492Z,18.80
2018-06-13T19:20:16.874Z,18.80
2018-06-13T19:22:46.129Z,18.80
2018-06-13T19:25:16.099Z,18.80
2018-06-13T19:27:45.632Z,18.70
2018-06-13T19:30:16.345Z,18.70
2018-06-13T19:32:45.477Z,18.70
2018-06-13T19:35:15.777Z,18.70
2018-06-13T19:37:45.505Z,18.70
2018-06-13T19:40:14.479Z,18.70
2018-06-13T19:42:52.593Z,18.70
2018-06-13T19:45:22.063Z,18.70
2018-06-13T19:47:57.045Z,18.70
2018-06-13T19:50:28.598Z,18.70
2018-06-13T19:53:02.992Z,18.70
2018-06-13T19:55:44.849Z,18.70
2018-06-13T19:58:14.065Z,18.70
2018-06-13T20:00:44.423Z,18.60
2018-06-13T20:03:19.690Z,18.60
2018-06-13T20:08:18.705Z,18.60
2018-06-13T20:10:47.925Z,18.70
2018-06-13T20:15:24.996Z,18.70
2018-06-13T20:17:59.586Z,18.70
2018-06-13T20:20:45.555Z,18.70
2018-06-13T20:29:06.526Z,18.70
2018-06-13T20:31:36.842Z,18.70
2018-06-13T20:34:05.980Z,18.70
2018-06-13T20:36:35.115Z,18.60
2018-06-13T20:39:06.932Z,18.60
2018-06-13T20:41:35.860Z,18.60
2018-06-13T20:44:04.822Z,18.60
2018-06-13T20:49:03.783Z,18.60
2018-06-13T20:51:32.745Z,18.60
2018-06-13T20:54:01.706Z,18.60
2018-06-13T20:56:30.761Z,18.70
2018-06-13T20:59:01.305Z,18.70
2018-06-13T21:01:30.510Z,18.70
2018-06-13T21:03:59.500Z,18.70
2018-06-13T21:06:28.522Z,18.70
2018-06-13T21:08:57.732Z,18.70
2018-06-13T21:11:26.829Z,18.70
2018-06-13T21:13:55.818Z,18.70
2018-06-13T21:16:25.341Z,18.70
2018-06-13T21:18:54.597Z,18.70
2018-06-13T21:21:23.471Z,18.70
2018-06-13T21:23:52.921Z,18.70
2018-06-13T21:26:22.260Z,18.70
2018-06-13T21:28:51.455Z,18.70
2018-06-13T21:31:20.676Z,18.70
2018-06-13T21:33:49.851Z,18.70
2018-06-13T21:36:19.100Z,18.70
2018-06-13T21:38:48.176Z,18.70
2018-06-13T21:41:17.367Z,18.60
2018-06-13T21:43:47.168Z,18.60
2018-06-13T21:46:16.288Z,18.70
2018-06-13T21:48:45.565Z,18.60
2018-06-13T21:51:14.724Z,18.60
2018-06-13T21:53:43.975Z,18.60
2018-06-13T21:56:13.126Z,18.60
2018-06-13T21:58:42.364Z,18.60
2018-06-13T22:01:11.678Z,18.60
2018-06-13T22:03:40.837Z,18.60
2018-06-13T22:06:10.054Z,18.60
2018-06-13T22:08:39.520Z,18.60
2018-06-13T22:11:08.593Z,18.60
2018-06-13T22:13:37.604Z,18.60
2018-06-13T22:18:35.956Z,18.50
2018-06-13T22:21:05.192Z,18.50
2018-06-13T22:23:34.452Z,18.50
2018-06-13T22:28:32.644Z,18.50
2018-06-13T22:31:01.761Z,18.50
2018-06-13T22:33:31.124Z,18.40
2018-06-13T22:36:00.661Z,18.40
2018-06-13T22:38:29.847Z,18.40
2018-06-13T22:40:59.152Z,18.40
2018-06-13T22:43:28.368Z,18.40
2018-06-13T22:45:57.267Z,18.40
2018-06-13T22:50:55.461Z,18.40
2018-06-13T22:53:24.652Z,18.40
2018-06-13T22:55:53.814Z,18.30
2018-06-13T23:03:39.452Z,18.30
2018-06-13T23:08:38.859Z,18.30
2018-06-13T23:11:08.575Z,18.30
2018-06-13T23:13:37.471Z,18.30
2018-06-13T23:16:06.675Z,18.30
2018-06-13T23:18:35.955Z,18.20
2018-06-13T23:21:04.872Z,18.20
2018-06-13T23:28:31.804Z,18.20
2018-06-13T23:31:01.136Z,18.20
2018-06-13T23:33:30.400Z,18.20
2018-06-13T23:35:59.257Z,18.20
2018-06-13T23:38:28.599Z,18.10
2018-06-13T23:40:57.448Z,18.10
2018-06-13T23:43:26.847Z,18.10
2018-06-13T23:45:55.771Z,18.10
2018-06-13T23:48:25.203Z,18.10
2018-06-13T23:50:54.488Z,18.10
2018-06-13T23:55:52.640Z,18.10
2018-06-13T23:58:21.990Z,18.10
